MSC Susanna — 3ECU4 — position and weather

sailwx.info

Track history (hours):
 
Tides and Currents Weather Stations Pressure Air Temp Water Temp Dewpoint Dewpoint Depression Visibility Wind Speed Wind Dir Waves Ship Positions

MSC Susanna

Last reported at 2016-Apr-11 22:33 UTC. Time now 2016-May-03 18:12 UTC.
Position N 37°44' E 015°53'.
Warning: this ship's position is 21 days out of date.

Length 337 m; draft 15.7 m.

Type: Ship (hazmat cat A). MMSI: 371466000.

Date/timePositionNaut miles runAvg speedWind from/ knotsBaromVisibWave heightAir tempDewpointWater temp
2016-Apr-11 22:33N 37°44' E 015°53'1818.2
2016-Apr-11 21:33N 37°56' E 015°36'1717.3
2016-Apr-11 20:34N 38°13' E 015°36'1313.0
2016-Apr-11 19:34N 38°23' E 015°47'7 6.7
2016-Apr-11 18:32N 38°27' E 015°54'0 0.0
2016-Apr-11 17:32N 38°27' E 015°54'0 0.0
2016-Apr-11 16:32N 38°27' E 015°54'0 0.0
2016-Apr-11 15:23N 38°27' E 015°54'0 0.0
2016-Apr-11 14:32N 38°27' E 015°54'0 0.0
2016-Apr-11 13:26N 38°27' E 015°54'0 0.0
2016-Apr-11 12:32N 38°27' E 015°54'0 0.0
2016-Apr-11 11:29N 38°27' E 015°54'0 0.0
2016-Apr-11 10:32N 38°27' E 015°54'0 0.0
2016-Apr-11 09:29N 38°27' E 015°54'0 0.0
2016-Apr-11 08:32N 38°27' E 015°54'0 0.0
2016-Apr-11 07:29N 38°27' E 015°54'0 0.0
2016-Apr-11 06:29N 38°27' E 015°54'0 0.0
2016-Apr-11 05:32N 38°27' E 015°54'1 1.0
2016-Apr-11 04:33N 38°27' E 015°53'6 6.1
2016-Apr-11 03:33N 38°25' E 015°46'1 0.5
2016-Apr-11 02:34N 38°25' E 015°45'7 6.7
2016-Apr-11 01:33N 38°25' E 015°36'1817.9
2016-Apr-11 00:33N 38°21' E 015°14'1818.2
2016-Apr-10 23:33N 38°18' E 014°51'4118.2
2016-Apr-10 21:18N 38°19' E 013°59'1418.4
2016-Apr-10 20:33N 38°19' E 013°41'1818.2
2016-Apr-10 19:34N 38°19' E 013°18'1818.1
2016-Apr-10 18:33N 38°17' E 012°55'1818.2
2016-Apr-10 17:33N 38°16' E 012°32'1818.1
2016-Apr-10 16:33N 38°14' E 012°09'46420.2
2016-Apr-09 17:33N 37°00' E 002°31'2020.1
2016-Apr-09 16:33N 36°57' E 002°06'2120.7
2016-Apr-09 15:33N 36°53' E 001°41'2121.0
2016-Apr-09 14:34N 36°50' E 001°15'2221.5
2016-Apr-09 13:33N 36°46' E 000°49'2121.2
2016-Apr-09 12:33N 36°42' E 000°23'27320.3
2016-Apr-08 23:05N 36°00' W 005°12'1222.8
2016-Apr-08 22:34N 35°58' W 005°27'20014.9
2016-Apr-08 09:09N 37°39' W 009°02'1220.2
2016-Apr-08 08:33N 37°49' W 008°53'7 7.3
2016-Apr-08 07:33N 37°56' W 008°51'0 0.0
2016-Apr-08 06:33N 37°56' W 008°51'0 0.0
2016-Apr-08 05:30N 37°56' W 008°51'0 0.0
2016-Apr-08 04:33N 37°56' W 008°51'0 0.0
2016-Apr-08 03:33N 37°56' W 008°51'0 0.0
2016-Apr-08 02:33N 37°56' W 008°51'0 0.0
2016-Apr-08 01:33N 37°56' W 008°51'0 0.0
2016-Apr-08 00:30N 37°56' W 008°51'0 0.0
2016-Apr-07 23:33N 37°56' W 008°51'0 0.0
2016-Apr-07 22:33N 37°56' W 008°51'0 0.0
2016-Apr-07 21:30N 37°56' W 008°51'0 0.0
2016-Apr-07 20:33N 37°56' W 008°51'0 0.0
2016-Apr-07 19:33N 37°56' W 008°51'0 0.0
2016-Apr-07 18:33N 37°56' W 008°51'0 0.0
2016-Apr-07 17:33N 37°56' W 008°51'0 0.0
2016-Apr-07 16:33N 37°56' W 008°51'0 0.0
2016-Apr-07 15:33N 37°56' W 008°51'0 0.0
2016-Apr-07 14:32N 37°56' W 008°51'0 0.0
2016-Apr-07 13:32N 37°56' W 008°51'2 2.0
2016-Apr-07 12:33N 37°54' W 008°50'7 7.5
2016-Apr-07 11:33N 37°47' W 008°54'7 6.8
2016-Apr-07 10:33N 37°41' W 008°58'1 1.3
2016-Apr-07 09:33N 37°42' W 008°59'1 1.2
2016-Apr-07 08:33N 37°43' W 008°60'1 1.0
2016-Apr-07 07:33N 37°44' W 009°01'3 3.0
2016-Apr-07 06:33N 37°45' W 009°04'7 6.8
2016-Apr-07 05:33N 37°45' W 009°13'6 6.0
2016-Apr-07 04:33N 37°51' W 009°15'8 7.8
2016-Apr-07 03:32N 37°59' W 009°15'1212.1
2016-Apr-07 02:32N 38°08' W 009°24'1515.7
2016-Apr-07 01:33N 38°18' W 009°39'1615.6
2016-Apr-07 00:33N 38°28' W 009°55'1514.7
2016-Apr-06 23:33N 38°40' W 010°05'1615.6
2016-Apr-06 22:33N 38°56' W 010°05'1615.6
2016-Apr-06 21:30N 39°12' W 010°04'29915.6
2016-Apr-06 02:20N 44°10' W 009°27'40815.5
2016-Apr-05 00:03N 49°43' W 003°40'917.2
2016-Apr-04 23:33N 49°48' W 003°30'1717.5
2016-Apr-04 22:33N 49°56' W 003°06'1717.4
2016-Apr-04 21:33N 50°03' W 002°41'1916.4
2016-Apr-04 20:23N 50°07' W 002°12'6014.0
2016-Apr-04 16:08N 50°23' W 000°42'915.3
2016-Apr-04 15:33N 50°25' W 000°29'1616.3
2016-Apr-04 14:34N 50°30' W 000°04'1717.0
2016-Apr-04 13:33N 50°34' E 000°22'3316.1
2016-Apr-04 11:29N 50°52' E 001°06'1313.9
2016-Apr-04 10:33N 51°01' E 001°22'1211.8
2016-Apr-04 09:33N 51°08' E 001°36'1212.2
2016-Apr-04 08:33N 51°17' E 001°50'1211.5
2016-Apr-04 07:33N 51°24' E 002°04'1313.1
2016-Apr-04 06:33N 51°22' E 002°25'1312.6
2016-Apr-04 05:33N 51°24' E 002°45'1515.4
2016-Apr-04 04:34N 51°24' E 003°09'1616.1
2016-Apr-04 03:33N 51°26' E 003°35'1212.0
2016-Apr-04 02:33N 51°21' E 003°53'1010.2
2016-Apr-04 01:33N 51°23' E 004°09'6 5.6
2016-Apr-04 00:34N 51°21' E 004°17'1 0.6
2016-Apr-03 23:33N 51°20' E 004°18'1 1.1
2016-Apr-03 22:29N 51°19' E 004°19'0 0.0
2016-Apr-03 21:29N 51°19' E 004°19'0 0.0
2016-Apr-03 20:29N 51°19' E 004°19'0 0.0
2016-Apr-03 19:32N 51°19' E 004°19'0 0.0
2016-Apr-03 18:32N 51°19' E 004°19'0 0.0
2016-Apr-03 17:32N 51°19' E 004°19'0 0.0
2016-Apr-03 16:32N 51°19' E 004°19'0 0.0
2016-Apr-03 15:32N 51°19' E 004°19'0 0.0
2016-Apr-03 14:32N 51°19' E 004°19'0 0.0
2016-Apr-03 13:32N 51°19' E 004°19'0 0.0
2016-Apr-03 12:32N 51°19' E 004°19'0 0.0
2016-Apr-03 11:32N 51°19' E 004°19'0 0.0
2016-Apr-03 10:29N 51°19' E 004°19'0 0.0
2016-Apr-03 09:32N 51°19' E 004°19'0 0.0
2016-Apr-03 08:31N 51°19' E 004°19'0 0.0
2016-Apr-03 07:31N 51°19' E 004°19'0 0.0
2016-Apr-03 06:28N 51°19' E 004°19'0 0.0
2016-Apr-03 05:31N 51°19' E 004°19'0 0.0
2016-Apr-03 04:31N 51°19' E 004°19'0 0.0
2016-Apr-03 03:28N 51°19' E 004°19'0 0.0
2016-Apr-03 02:31N 51°19' E 004°19'0 0.0
2016-Apr-03 01:31N 51°19' E 004°19'0 0.0
2016-Apr-03 00:28N 51°19' E 004°19'0 0.0
2016-Apr-02 23:31N 51°19' E 004°19'0 0.0
2016-Apr-02 22:31N 51°19' E 004°19'0 0.0
2016-Apr-02 21:31N 51°19' E 004°19'0 0.0
2016-Apr-02 20:31N 51°19' E 004°19'0 0.0
2016-Apr-02 19:31N 51°19' E 004°19'0 0.0
2016-Apr-02 18:28N 51°19' E 004°19'2 2.1
2016-Apr-02 17:33N 51°21' E 004°17'0 0.1
2016-Apr-02 16:34N 51°21' E 004°17'4 3.6
2016-Apr-02 15:33N 51°23' E 004°13'9 9.1
2016-Apr-02 14:33N 51°26' E 003°59'1010.3
2016-Apr-02 13:33N 51°23' E 003°43'9 8.8
2016-Apr-02 12:34N 51°25' E 003°29'1616.3
2016-Apr-02 11:33N 51°24' E 003°03'1212.0
2016-Apr-02 10:33N 51°36' E 003°10'1413.8
2016-Apr-02 09:31N 51°50' E 003°15'1515.7
2016-Apr-02 08:33N 52°05' E 003°21'1818.2
2016-Apr-02 07:33N 52°22' E 003°25'1918.8
2016-Apr-02 06:33N 52°41' E 003°33'2319.6
2016-Apr-02 05:23N 52°57' E 003°60'1820.0
2016-Apr-02 04:28N 53°09' E 004°22'2119.8
2016-Apr-02 03:26N 53°28' E 004°37'1718.9
2016-Apr-02 02:34N 53°34' E 005°02'1818.4
2016-Apr-02 01:34N 53°41' E 005°32'1818.2
2016-Apr-02 00:34N 53°47' E 006°01'1918.7
2016-Apr-01 23:34N 53°51' E 006°32'2019.6
2016-Apr-01 22:33N 53°56' E 007°04'  
Track history (hours):
 
Tides and Currents Weather Stations Pressure Air Temp Water Temp Dewpoint Dewpoint Depression Visibility Wind Speed Wind Dir Waves Ship Positions

MSC Susanna

Last reported at 2016-Apr-11 22:33 UTC. Time now 2016-May-03 18:12 UTC.
Position N 37°44' E 015°53'.
Warning: this ship's position is 21 days out of date.

Length 337 m; draft 15.7 m.

Type: Ship (hazmat cat A). MMSI: 371466000.

Date/timePositionNaut miles runAvg speedWind from/ knotsBaromVisibWave heightAir tempDewpointWater temp
2016-Apr-11 22:33N 37°44' E 015°53'1818.2
2016-Apr-11 21:33N 37°56' E 015°36'1717.3
2016-Apr-11 20:34N 38°13' E 015°36'1313.0
2016-Apr-11 19:34N 38°23' E 015°47'7 6.7
2016-Apr-11 18:32N 38°27' E 015°54'0 0.0
2016-Apr-11 17:32N 38°27' E 015°54'0 0.0
2016-Apr-11 16:32N 38°27' E 015°54'0 0.0
2016-Apr-11 15:23N 38°27' E 015°54'0 0.0
2016-Apr-11 14:32N 38°27' E 015°54'0 0.0
2016-Apr-11 13:26N 38°27' E 015°54'0 0.0
2016-Apr-11 12:32N 38°27' E 015°54'0 0.0
2016-Apr-11 11:29N 38°27' E 015°54'0 0.0
2016-Apr-11 10:32N 38°27' E 015°54'0 0.0
2016-Apr-11 09:29N 38°27' E 015°54'0 0.0
2016-Apr-11 08:32N 38°27' E 015°54'0 0.0
2016-Apr-11 07:29N 38°27' E 015°54'0 0.0
2016-Apr-11 06:29N 38°27' E 015°54'0 0.0
2016-Apr-11 05:32N 38°27' E 015°54'1 1.0
2016-Apr-11 04:33N 38°27' E 015°53'6 6.1
2016-Apr-11 03:33N 38°25' E 015°46'1 0.5
2016-Apr-11 02:34N 38°25' E 015°45'7 6.7
2016-Apr-11 01:33N 38°25' E 015°36'1817.9
2016-Apr-11 00:33N 38°21' E 015°14'1818.2
2016-Apr-10 23:33N 38°18' E 014°51'4118.2
2016-Apr-10 21:18N 38°19' E 013°59'1418.4
2016-Apr-10 20:33N 38°19' E 013°41'1818.2
2016-Apr-10 19:34N 38°19' E 013°18'1818.1
2016-Apr-10 18:33N 38°17' E 012°55'1818.2
2016-Apr-10 17:33N 38°16' E 012°32'1818.1
2016-Apr-10 16:33N 38°14' E 012°09'46420.2
2016-Apr-09 17:33N 37°00' E 002°31'2020.1
2016-Apr-09 16:33N 36°57' E 002°06'2120.7
2016-Apr-09 15:33N 36°53' E 001°41'2121.0
2016-Apr-09 14:34N 36°50' E 001°15'2221.5
2016-Apr-09 13:33N 36°46' E 000°49'2121.2
2016-Apr-09 12:33N 36°42' E 000°23'27320.3
2016-Apr-08 23:05N 36°00' W 005°12'1222.8
2016-Apr-08 22:34N 35°58' W 005°27'20014.9
2016-Apr-08 09:09N 37°39' W 009°02'1220.2
2016-Apr-08 08:33N 37°49' W 008°53'7 7.3
2016-Apr-08 07:33N 37°56' W 008°51'0 0.0
2016-Apr-08 06:33N 37°56' W 008°51'0 0.0
2016-Apr-08 05:30N 37°56' W 008°51'0 0.0
2016-Apr-08 04:33N 37°56' W 008°51'0 0.0
2016-Apr-08 03:33N 37°56' W 008°51'0 0.0
2016-Apr-08 02:33N 37°56' W 008°51'0 0.0
2016-Apr-08 01:33N 37°56' W 008°51'0 0.0
2016-Apr-08 00:30N 37°56' W 008°51'0 0.0
2016-Apr-07 23:33N 37°56' W 008°51'0 0.0
2016-Apr-07 22:33N 37°56' W 008°51'0 0.0
2016-Apr-07 21:30N 37°56' W 008°51'0 0.0
2016-Apr-07 20:33N 37°56' W 008°51'0 0.0
2016-Apr-07 19:33N 37°56' W 008°51'0 0.0
2016-Apr-07 18:33N 37°56' W 008°51'0 0.0
2016-Apr-07 17:33N 37°56' W 008°51'0 0.0
2016-Apr-07 16:33N 37°56' W 008°51'0 0.0
2016-Apr-07 15:33N 37°56' W 008°51'0 0.0
2016-Apr-07 14:32N 37°56' W 008°51'0 0.0
2016-Apr-07 13:32N 37°56' W 008°51'2 2.0
2016-Apr-07 12:33N 37°54' W 008°50'7 7.5
2016-Apr-07 11:33N 37°47' W 008°54'7 6.8
2016-Apr-07 10:33N 37°41' W 008°58'1 1.3
2016-Apr-07 09:33N 37°42' W 008°59'1 1.2
2016-Apr-07 08:33N 37°43' W 008°60'1 1.0
2016-Apr-07 07:33N 37°44' W 009°01'3 3.0
2016-Apr-07 06:33N 37°45' W 009°04'7 6.8
2016-Apr-07 05:33N 37°45' W 009°13'6 6.0
2016-Apr-07 04:33N 37°51' W 009°15'8 7.8
2016-Apr-07 03:32N 37°59' W 009°15'1212.1
2016-Apr-07 02:32N 38°08' W 009°24'1515.7
2016-Apr-07 01:33N 38°18' W 009°39'1615.6
2016-Apr-07 00:33N 38°28' W 009°55'1514.7
2016-Apr-06 23:33N 38°40' W 010°05'1615.6
2016-Apr-06 22:33N 38°56' W 010°05'1615.6
2016-Apr-06 21:30N 39°12' W 010°04'29915.6
2016-Apr-06 02:20N 44°10' W 009°27'40815.5
2016-Apr-05 00:03N 49°43' W 003°40'917.2
2016-Apr-04 23:33N 49°48' W 003°30'1717.5
2016-Apr-04 22:33N 49°56' W 003°06'1717.4
2016-Apr-04 21:33N 50°03' W 002°41'1916.4
2016-Apr-04 20:23N 50°07' W 002°12'6014.0
2016-Apr-04 16:08N 50°23' W 000°42'915.3
2016-Apr-04 15:33N 50°25' W 000°29'1616.3
2016-Apr-04 14:34N 50°30' W 000°04'1717.0
2016-Apr-04 13:33N 50°34' E 000°22'3316.1
2016-Apr-04 11:29N 50°52' E 001°06'1313.9
2016-Apr-04 10:33N 51°01' E 001°22'1211.8
2016-Apr-04 09:33N 51°08' E 001°36'1212.2
2016-Apr-04 08:33N 51°17' E 001°50'1211.5
2016-Apr-04 07:33N 51°24' E 002°04'1313.1
2016-Apr-04 06:33N 51°22' E 002°25'1312.6
2016-Apr-04 05:33N 51°24' E 002°45'1515.4
2016-Apr-04 04:34N 51°24' E 003°09'1616.1
2016-Apr-04 03:33N 51°26' E 003°35'1212.0
2016-Apr-04 02:33N 51°21' E 003°53'1010.2
2016-Apr-04 01:33N 51°23' E 004°09'6 5.6
2016-Apr-04 00:34N 51°21' E 004°17'1 0.6
2016-Apr-03 23:33N 51°20' E 004°18'1 1.1
2016-Apr-03 22:29N 51°19' E 004°19'0 0.0
2016-Apr-03 21:29N 51°19' E 004°19'0 0.0
2016-Apr-03 20:29N 51°19' E 004°19'0 0.0
2016-Apr-03 19:32N 51°19' E 004°19'0 0.0
2016-Apr-03 18:32N 51°19' E 004°19'0 0.0
2016-Apr-03 17:32N 51°19' E 004°19'0 0.0
2016-Apr-03 16:32N 51°19' E 004°19'0 0.0
2016-Apr-03 15:32N 51°19' E 004°19'0 0.0
2016-Apr-03 14:32N 51°19' E 004°19'0 0.0
2016-Apr-03 13:32N 51°19' E 004°19'0 0.0
2016-Apr-03 12:32N 51°19' E 004°19'0 0.0
2016-Apr-03 11:32N 51°19' E 004°19'0 0.0
2016-Apr-03 10:29N 51°19' E 004°19'0 0.0
2016-Apr-03 09:32N 51°19' E 004°19'0 0.0
2016-Apr-03 08:31N 51°19' E 004°19'0 0.0
2016-Apr-03 07:31N 51°19' E 004°19'0 0.0
2016-Apr-03 06:28N 51°19' E 004°19'0 0.0
2016-Apr-03 05:31N 51°19' E 004°19'0 0.0
2016-Apr-03 04:31N 51°19' E 004°19'0 0.0
2016-Apr-03 03:28N 51°19' E 004°19'0 0.0
2016-Apr-03 02:31N 51°19' E 004°19'0 0.0
2016-Apr-03 01:31N 51°19' E 004°19'0 0.0
2016-Apr-03 00:28N 51°19' E 004°19'0 0.0
2016-Apr-02 23:31N 51°19' E 004°19'0 0.0
2016-Apr-02 22:31N 51°19' E 004°19'0 0.0
2016-Apr-02 21:31N 51°19' E 004°19'0 0.0
2016-Apr-02 20:31N 51°19' E 004°19'0 0.0
2016-Apr-02 19:31N 51°19' E 004°19'0 0.0
2016-Apr-02 18:28N 51°19' E 004°19'2 2.1
2016-Apr-02 17:33N 51°21' E 004°17'0 0.1
2016-Apr-02 16:34N 51°21' E 004°17'4 3.6
2016-Apr-02 15:33N 51°23' E 004°13'9 9.1
2016-Apr-02 14:33N 51°26' E 003°59'1010.3
2016-Apr-02 13:33N 51°23' E 003°43'9 8.8
2016-Apr-02 12:34N 51°25' E 003°29'1616.3
2016-Apr-02 11:33N 51°24' E 003°03'1212.0
2016-Apr-02 10:33N 51°36' E 003°10'1413.8
2016-Apr-02 09:31N 51°50' E 003°15'1515.7
2016-Apr-02 08:33N 52°05' E 003°21'1818.2
2016-Apr-02 07:33N 52°22' E 003°25'1918.8
2016-Apr-02 06:33N 52°41' E 003°33'2319.6
2016-Apr-02 05:23N 52°57' E 003°60'1820.0
2016-Apr-02 04:28N 53°09' E 004°22'2119.8
2016-Apr-02 03:26N 53°28' E 004°37'1718.9
2016-Apr-02 02:34N 53°34' E 005°02'1818.4
2016-Apr-02 01:34N 53°41' E 005°32'1818.2
2016-Apr-02 00:34N 53°47' E 006°01'1918.7
2016-Apr-01 23:34N 53°51' E 006°32'2019.6
2016-Apr-01 22:33N 53°56' E 007°04'  

Dump ship's entire track history